SBJU/JDO METAR and TAF weather

Enter ICAO airport designator
Station Type Date Time Source
SBJU METAR 2019/10/14 06:00 UTC NOAA

SBJU 140600Z 14007KT 9999 FEW020 24/16 Q1016


Station Type Date Time Source
SBJU Decoded METAR 2019/10/14 06:00 UTC NOAA

Station name not available
Oct 14, 2019 - 02:00 AM EDT / 2019.10.14 0600 UTC
Wind: from the SE (140 degrees) at 8 MPH (7 KT):0
Visibility: greater than 7 mile(s):0
Sky conditions: mostly clear
Temperature: 75 F (24 C)
Dew Point: 60 F (16 C)
Relative Humidity: 60%
Pressure (altimeter): 30.00 in. Hg (1016 hPa)
ob: SBJU 140600Z 14007KT 9999 FEW020 24/16 Q1016
cycle: 6

Station Type Date Time Source
SBJU TAF 2011/11/01 00:05 UTC NOAA

TAF SBJU 012200Z 0200/0212 00000KT 9999 SCT020 TX28/0200Z TN24/0207Z
BECMG 0210/0212 06005KT
RMK PCE

Example: see airport list